createdAt,value
2023-05-20T00:00:51.128Z,7.03
2023-05-20T00:03:21.225Z,7.40
2023-05-20T00:08:41.805Z,7.70
2023-05-20T00:11:11.579Z,8.10
2023-05-20T00:13:40.745Z,8.90
2023-05-20T00:16:10.765Z,8.37
2023-05-20T00:18:39.324Z,8.17
2023-05-20T00:21:09.365Z,8.57
2023-05-20T00:23:37.838Z,8.10
2023-05-20T00:26:07.747Z,8.20
2023-05-20T00:28:37.661Z,8.87
2023-05-20T00:31:09.211Z,8.40
2023-05-20T00:33:39.273Z,8.87
2023-05-20T00:36:09.365Z,8.87
2023-05-20T00:38:37.495Z,8.70
2023-05-20T00:41:13.544Z,9.77
2023-05-20T00:43:43.363Z,8.57
2023-05-20T00:46:13.487Z,9.27
2023-05-20T00:48:46.366Z,8.80
2023-05-20T00:51:19.334Z,9.17
2023-05-20T00:53:50.753Z,8.27
2023-05-20T00:56:21.662Z,10.07
2023-05-20T00:58:52.666Z,9.47
2023-05-20T01:01:20.082Z,9.80
2023-05-20T01:03:57.615Z,9.10
2023-05-20T01:06:28.964Z,8.10
2023-05-20T01:08:59.270Z,11.67
2023-05-20T01:11:40.690Z,8.73
2023-05-20T01:14:19.481Z,8.57
2023-05-20T01:16:50.976Z,8.67
2023-05-20T01:19:37.056Z,8.43
2023-05-20T01:22:08.552Z,8.83
2023-05-20T01:24:39.181Z,9.30
2023-05-20T01:27:11.057Z,8.87
2023-05-20T01:29:50.273Z,9.47
2023-05-20T01:32:38.999Z,8.43
2023-05-20T01:35:12.698Z,10.13
2023-05-20T01:37:44.576Z,10.50
2023-05-20T01:40:20.236Z,10.73
2023-05-20T01:42:53.755Z,10.73
2023-05-20T01:45:28.432Z,9.50
2023-05-20T01:48:04.723Z,9.40
2023-05-20T01:50:33.385Z,9.43
2023-05-20T01:53:00.519Z,9.67
2023-05-20T01:55:27.969Z,9.13
2023-05-20T01:57:56.889Z,9.10
2023-05-20T02:00:24.540Z,9.03
2023-05-20T02:02:52.221Z,8.63
2023-05-20T02:05:20.089Z,9.23
2023-05-20T02:07:52.536Z,9.77
2023-05-20T02:10:22.804Z,12.83
2023-05-20T02:12:49.978Z,11.97
2023-05-20T02:15:19.253Z,11.80
2023-05-20T02:17:47.830Z,10.43
2023-05-20T02:20:18.196Z,9.87
2023-05-20T02:22:50.443Z,9.37
2023-05-20T02:25:19.194Z,9.33
2023-05-20T02:27:49.613Z,8.50
2023-05-20T02:30:19.808Z,10.23
2023-05-20T02:32:51.193Z,9.80
2023-05-20T02:35:19.474Z,10.53
2023-05-20T02:37:57.180Z,9.67
2023-05-20T02:40:28.212Z,9.63
2023-05-20T02:42:56.753Z,9.93
2023-05-20T02:45:26.689Z,9.83
2023-05-20T02:47:55.104Z,10.20
2023-05-20T02:50:25.054Z,9.83
2023-05-20T02:53:01.276Z,11.47
2023-05-20T02:55:34.570Z,10.07
2023-05-20T02:58:04.788Z,11.10
2023-05-20T03:00:39.243Z,10.73
2023-05-20T03:03:10.775Z,11.57
2023-05-20T03:05:39.390Z,9.83
2023-05-20T03:08:10.433Z,10.07
2023-05-20T03:10:39.864Z,10.10
2023-05-20T03:13:13.119Z,11.10
2023-05-20T03:15:43.461Z,10.07
2023-05-20T03:18:19.866Z,11.13
2023-05-20T03:20:50.882Z,9.27
2023-05-20T03:23:20.290Z,10.57
2023-05-20T03:25:51.104Z,10.97
2023-05-20T03:28:19.712Z,10.17
2023-05-20T03:30:48.499Z,10.53
2023-05-20T03:33:24.587Z,10.77
2023-05-20T03:35:52.724Z,9.40
2023-05-20T03:38:22.485Z,10.53
2023-05-20T03:40:50.609Z,10.27
2023-05-20T03:43:19.161Z,11.90
2023-05-20T03:45:50.109Z,10.27
2023-05-20T03:48:21.505Z,10.13
2023-05-20T03:50:51.613Z,11.77
2023-05-20T03:53:21.650Z,12.60
2023-05-20T03:55:49.944Z,11.00
2023-05-20T03:58:21.756Z,10.67
2023-05-20T04:00:52.083Z,9.87
2023-05-20T04:03:20.579Z,10.60
2023-05-20T04:05:51.586Z,10.30
2023-05-20T04:08:28.667Z,10.43
2023-05-20T04:11:07.530Z,10.23
2023-05-20T04:13:44.507Z,10.40
2023-05-20T04:16:16.037Z,11.33
2023-05-20T04:18:49.153Z,10.37
2023-05-20T04:21:20.392Z,10.33
2023-05-20T04:23:50.329Z,9.77
2023-05-20T04:26:17.419Z,9.50
2023-05-20T04:28:44.724Z,9.73
2023-05-20T04:31:17.282Z,10.37
2023-05-20T04:33:52.170Z,9.87
2023-05-20T04:36:21.684Z,9.33
2023-05-20T04:38:52.278Z,9.80
2023-05-20T04:41:24.947Z,9.60
2023-05-20T04:43:55.645Z,9.43
2023-05-20T04:46:22.779Z,10.73
2023-05-20T04:48:51.372Z,9.63
2023-05-20T04:51:24.054Z,10.17
2023-05-20T04:53:54.776Z,10.87
2023-05-20T04:56:23.444Z,9.40
2023-05-20T04:58:53.050Z,9.07
2023-05-20T05:01:22.779Z,8.63
2023-05-20T05:03:52.181Z,8.93
2023-05-20T05:06:22.244Z,8.40
2023-05-20T05:08:50.757Z,8.47
2023-05-20T05:11:20.529Z,8.33
2023-05-20T05:13:50.654Z,7.83
2023-05-20T05:16:25.706Z,8.20
2023-05-20T05:18:55.248Z,8.07
2023-05-20T05:21:31.004Z,10.20
2023-05-20T05:24:03.082Z,7.67
2023-05-20T05:26:33.404Z,8.07
2023-05-20T05:29:05.199Z,8.40
2023-05-20T05:31:33.431Z,7.23
2023-05-20T05:34:04.395Z,9.13
2023-05-20T05:36:35.123Z,8.43
2023-05-20T05:39:03.334Z,8.13
2023-05-20T05:41:33.903Z,8.17
2023-05-20T05:44:03.918Z,8.87
2023-05-20T05:46:33.538Z,8.47
2023-05-20T05:49:04.613Z,8.33
2023-05-20T05:51:33.494Z,9.07
2023-05-20T05:54:08.067Z,8.60
2023-05-20T05:56:36.741Z,8.57
2023-05-20T05:59:09.939Z,8.93
2023-05-20T06:01:41.948Z,8.10
2023-05-20T06:04:10.861Z,8.37
2023-05-20T06:06:39.631Z,8.53
2023-05-20T06:09:13.189Z,8.30
2023-05-20T06:11:44.332Z,7.63
2023-05-20T06:14:21.776Z,8.53
2023-05-20T06:16:52.313Z,8.23
2023-05-20T06:19:22.244Z,7.70
2023-05-20T06:21:52.151Z,8.40
2023-05-20T06:24:24.882Z,8.47
2023-05-20T06:26:53.553Z,7.53
2023-05-20T06:29:22.240Z,8.30
2023-05-20T06:31:58.430Z,8.18
2023-05-20T06:34:27.031Z,7.15
2023-05-20T06:36:56.482Z,8.02
2023-05-20T06:39:25.471Z,6.60
2023-05-20T06:41:55.512Z,6.63
2023-05-20T06:44:25.888Z,6.97
2023-05-20T06:46:56.743Z,7.30
2023-05-20T06:49:27.015Z,7.25
2023-05-20T06:51:58.037Z,7.50
2023-05-20T06:54:28.499Z,7.43
2023-05-20T06:56:57.168Z,7.50
2023-05-20T06:59:28.178Z,7.20
2023-05-20T07:01:56.235Z,7.15
2023-05-20T07:04:27.223Z,7.25
2023-05-20T07:06:56.854Z,6.63
2023-05-20T07:09:34.327Z,6.97
2023-05-20T07:12:09.337Z,6.45
2023-05-20T07:14:45.546Z,6.75
2023-05-20T07:17:13.990Z,6.25
2023-05-20T07:19:55.957Z,6.43
2023-05-20T07:22:34.816Z,6.72
2023-05-20T07:25:07.679Z,7.05
2023-05-20T07:27:37.359Z,7.45
2023-05-20T07:30:07.829Z,8.38
2023-05-20T07:32:41.135Z,7.28
2023-05-20T07:35:10.084Z,6.97
2023-05-20T07:37:40.119Z,7.07
2023-05-20T07:40:10.589Z,7.50
2023-05-20T07:42:41.188Z,7.05
2023-05-20T07:45:10.714Z,6.53
2023-05-20T07:47:41.778Z,8.07
2023-05-20T07:50:09.605Z,7.25
2023-05-20T07:52:55.179Z,6.68
2023-05-20T07:55:26.918Z,7.25
2023-05-20T07:57:57.367Z,7.15
2023-05-20T08:00:26.672Z,8.43
2023-05-20T08:02:55.301Z,9.00
2023-05-20T08:05:26.085Z,9.68
2023-05-20T08:07:56.743Z,7.10
2023-05-20T08:10:24.235Z,7.13
2023-05-20T08:12:56.214Z,7.55
2023-05-20T08:15:26.888Z,7.13
2023-05-20T08:18:01.712Z,7.00
2023-05-20T08:20:31.225Z,7.95
2023-05-20T08:23:08.106Z,7.10
2023-05-20T08:25:44.305Z,8.23
2023-05-20T08:28:22.076Z,7.38
2023-05-20T08:30:53.415Z,7.57
2023-05-20T08:33:34.884Z,7.85
2023-05-20T08:36:04.943Z,7.50
2023-05-20T08:38:34.863Z,7.60
2023-05-20T08:41:13.003Z,6.60
2023-05-20T08:43:41.519Z,7.05
2023-05-20T08:46:12.857Z,7.22
2023-05-20T08:48:43.341Z,7.80
2023-05-20T08:51:16.948Z,7.13
2023-05-20T08:53:55.587Z,8.65
2023-05-20T08:56:30.078Z,8.77
2023-05-20T08:59:02.954Z,8.30
2023-05-20T09:01:33.952Z,7.63
2023-05-20T09:04:04.160Z,8.45
2023-05-20T09:06:44.092Z,8.02
2023-05-20T09:09:21.814Z,8.07
2023-05-20T09:11:49.430Z,7.13
2023-05-20T09:14:18.411Z,7.38
2023-05-20T09:16:52.134Z,8.57
2023-05-20T09:19:26.911Z,9.05
2023-05-20T09:21:57.708Z,9.65
2023-05-20T09:24:27.190Z,8.52
2023-05-20T09:26:56.488Z,9.55
2023-05-20T09:29:26.249Z,8.35
2023-05-20T09:31:56.129Z,8.30
2023-05-20T09:34:32.146Z,7.90
2023-05-20T09:37:01.861Z,7.95
2023-05-20T09:39:34.704Z,8.13
2023-05-20T09:42:21.836Z,7.63
2023-05-20T09:44:55.682Z,6.90
2023-05-20T09:47:25.474Z,7.40
2023-05-20T09:49:55.427Z,7.65
2023-05-20T09:52:26.380Z,7.15
2023-05-20T09:54:56.531Z,7.05
2023-05-20T09:57:25.958Z,9.88
2023-05-20T09:59:57.866Z,7.55
2023-05-20T10:02:25.898Z,8.07
2023-05-20T10:04:59.904Z,7.18
2023-05-20T10:08:56.447Z,8.23
2023-05-20T10:12:22.236Z,7.53
2023-05-20T10:15:40.171Z,7.07
2023-05-20T10:18:56.759Z,7.63
2023-05-20T10:21:26.200Z,7.57
2023-05-20T10:24:09.604Z,7.65
2023-05-20T10:26:44.832Z,7.03
2023-05-20T10:29:24.213Z,7.00
2023-05-20T10:31:55.093Z,6.63
2023-05-20T10:34:27.048Z,7.38
2023-05-20T10:36:59.832Z,8.95
2023-05-20T10:39:43.235Z,7.10
2023-05-20T10:42:12.378Z,7.70
2023-05-20T10:44:53.582Z,7.25
2023-05-20T10:47:25.754Z,6.78
2023-05-20T10:49:54.901Z,7.53
2023-05-20T10:52:26.313Z,7.15
2023-05-20T10:55:03.141Z,8.02
2023-05-20T10:57:32.578Z,7.53
2023-05-20T11:00:09.480Z,8.40
2023-05-20T11:02:38.433Z,7.78
2023-05-20T11:05:15.045Z,7.13
2023-05-20T11:07:44.135Z,7.40
2023-05-20T11:10:12.516Z,7.72
2023-05-20T11:12:41.138Z,7.78
2023-05-20T11:15:18.410Z,7.72
2023-05-20T11:18:04.466Z,8.00
2023-05-20T11:20:37.696Z,8.52
2023-05-20T11:23:14.800Z,7.72
2023-05-20T11:25:51.755Z,8.13
2023-05-20T11:28:25.151Z,8.10
2023-05-20T11:31:02.620Z,8.13
2023-05-20T11:33:31.249Z,7.97
2023-05-20T11:36:01.861Z,7.95
2023-05-20T11:38:31.345Z,8.25
2023-05-20T11:41:03.492Z,8.80
2023-05-20T11:43:40.213Z,7.57
2023-05-20T11:46:13.160Z,8.40
2023-05-20T11:48:57.558Z,8.20
2023-05-20T11:51:29.578Z,8.10
2023-05-20T11:54:08.982Z,8.65
2023-05-20T11:56:39.676Z,8.73
2023-05-20T11:59:13.059Z,10.23
2023-05-20T12:01:46.332Z,8.45
2023-05-20T12:04:23.559Z,8.90
2023-05-20T12:06:53.640Z,7.82
2023-05-20T12:09:22.644Z,8.57
2023-05-20T12:11:51.661Z,8.50
2023-05-20T12:14:22.545Z,8.75
2023-05-20T12:16:55.718Z,7.75
2023-05-20T12:19:23.165Z,7.85
2023-05-20T12:22:00.515Z,7.95
2023-05-20T12:24:38.521Z,8.13
2023-05-20T12:27:14.756Z,8.27
2023-05-20T12:30:12.712Z,8.27
2023-05-20T12:32:47.804Z,7.88
2023-05-20T12:35:16.328Z,7.65
2023-05-20T12:37:53.179Z,7.60
2023-05-20T12:43:07.283Z,8.10
2023-05-20T12:45:35.906Z,7.72
2023-05-20T12:48:08.403Z,7.75
2023-05-20T12:50:38.246Z,8.65
2023-05-20T12:53:14.005Z,7.55
2023-05-20T12:55:41.401Z,7.97
2023-05-20T12:58:09.851Z,7.93
2023-05-20T13:00:40.333Z,7.65
2023-05-20T13:03:13.998Z,8.95
2023-05-20T13:05:41.779Z,7.45
2023-05-20T13:08:12.708Z,7.53
2023-05-20T13:10:48.728Z,8.13
2023-05-20T13:13:25.238Z,7.65
2023-05-20T13:15:54.655Z,8.48
2023-05-20T13:18:33.188Z,8.25
2023-05-20T13:21:08.058Z,7.93
2023-05-20T13:23:38.585Z,9.25
2023-05-20T13:26:09.499Z,7.80
2023-05-20T13:28:38.998Z,8.05
2023-05-20T13:31:09.933Z,7.32
2023-05-20T13:33:38.231Z,7.80
2023-05-20T13:36:06.757Z,8.10
2023-05-20T13:38:37.447Z,8.10
2023-05-20T13:41:07.842Z,8.00
2023-05-20T13:43:35.351Z,9.30
2023-05-20T13:46:05.235Z,7.78
2023-05-20T13:48:33.451Z,7.43
2023-05-20T13:51:06.129Z,8.25
2023-05-20T13:53:34.040Z,7.65
2023-05-20T13:56:01.780Z,7.55
2023-05-20T13:58:30.919Z,7.93
2023-05-20T14:01:01.401Z,8.15
2023-05-20T14:03:30.779Z,8.25
2023-05-20T14:05:58.400Z,8.52
2023-05-20T14:08:34.895Z,8.25
2023-05-20T14:11:01.997Z,7.82
2023-05-20T14:13:31.178Z,7.93
2023-05-20T14:16:00.030Z,7.93
2023-05-20T14:18:28.948Z,7.60
2023-05-20T14:20:58.534Z,8.20
2023-05-20T14:23:36.048Z,8.32
2023-05-20T14:26:06.140Z,7.45
2023-05-20T14:28:33.340Z,7.97
2023-05-20T14:31:01.842Z,7.82
2023-05-20T14:33:30.366Z,7.78
2023-05-20T14:36:05.232Z,7.30
2023-05-20T14:38:34.685Z,8.55
2023-05-20T14:41:11.141Z,7.70
2023-05-20T14:43:49.673Z,8.80
2023-05-20T14:46:18.384Z,7.72
2023-05-20T14:48:48.699Z,8.27
2023-05-20T14:51:16.521Z,8.27
2023-05-20T14:53:54.126Z,9.43
2023-05-20T14:56:24.247Z,8.00
2023-05-20T14:58:53.141Z,7.57
2023-05-20T15:01:30.792Z,7.80
2023-05-20T15:03:59.586Z,7.38
2023-05-20T15:06:28.374Z,8.20
2023-05-20T15:08:57.152Z,7.47
2023-05-20T15:11:25.924Z,9.75
2023-05-20T15:13:55.800Z,7.90
2023-05-20T15:16:30.930Z,8.25
2023-05-20T15:19:07.546Z,7.78
2023-05-20T15:21:36.811Z,8.60
2023-05-20T15:24:09.352Z,8.30
2023-05-20T15:26:40.396Z,8.00
2023-05-20T15:29:12.190Z,8.75
2023-05-20T15:31:41.210Z,8.50
2023-05-20T15:34:10.503Z,8.50
2023-05-20T15:36:46.661Z,8.27
2023-05-20T15:39:16.620Z,8.25
2023-05-20T15:41:52.130Z,8.07
2023-05-20T15:44:22.141Z,7.93
2023-05-20T15:46:55.023Z,8.27
2023-05-20T15:49:22.158Z,7.57
2023-05-20T15:52:03.057Z,8.77
2023-05-20T15:54:32.116Z,8.63
2023-05-20T15:57:02.923Z,7.97
2023-05-20T15:59:35.240Z,8.00
2023-05-20T16:02:07.069Z,9.30
2023-05-20T16:04:34.747Z,9.23
2023-05-20T16:07:04.926Z,9.50
2023-05-20T16:09:33.596Z,8.60
2023-05-20T16:12:02.868Z,7.82
2023-05-20T16:14:33.944Z,8.38
2023-05-20T16:17:02.487Z,8.60
2023-05-20T16:19:32.198Z,9.48
2023-05-20T16:22:02.000Z,8.93
2023-05-20T16:24:33.120Z,8.77
2023-05-20T16:27:02.737Z,9.05
2023-05-20T16:29:39.519Z,8.85
2023-05-20T16:32:09.088Z,9.43
2023-05-20T16:34:41.196Z,9.50
2023-05-20T16:37:12.764Z,9.18
2023-05-20T16:39:41.563Z,9.88
2023-05-20T16:42:14.080Z,9.20
2023-05-20T16:44:50.021Z,9.27
2023-05-20T16:47:21.414Z,9.48
2023-05-20T16:49:51.991Z,9.38
2023-05-20T16:52:21.240Z,10.30
2023-05-20T16:54:52.352Z,8.77
2023-05-20T16:57:22.238Z,9.23
2023-05-20T16:59:49.694Z,9.70
2023-05-20T17:02:18.629Z,10.82
2023-05-20T17:04:49.321Z,10.70
2023-05-20T17:07:21.439Z,11.43
2023-05-20T17:09:50.215Z,8.27
2023-05-20T17:12:17.428Z,8.25
2023-05-20T17:14:46.892Z,10.27
2023-05-20T17:17:18.662Z,8.00
2023-05-20T17:19:48.573Z,8.77
2023-05-20T17:22:15.792Z,8.30
2023-05-20T17:24:45.480Z,8.20
2023-05-20T17:27:14.713Z,7.78
2023-05-20T17:29:44.412Z,7.93
2023-05-20T17:32:22.235Z,7.57
2023-05-20T17:34:52.558Z,7.80
2023-05-20T17:37:24.243Z,7.40
2023-05-20T17:39:55.926Z,8.07
2023-05-20T17:42:25.946Z,8.45
2023-05-20T17:44:53.101Z,7.30
2023-05-20T17:47:23.187Z,6.93
2023-05-20T17:49:55.096Z,7.18
2023-05-20T17:52:28.769Z,8.23
2023-05-20T17:54:56.941Z,7.50
2023-05-20T17:57:27.538Z,7.95
2023-05-20T17:59:55.925Z,8.13
2023-05-20T18:02:24.586Z,9.07
2023-05-20T18:04:54.940Z,7.53
2023-05-20T18:07:30.310Z,8.27
2023-05-20T18:12:45.619Z,8.85
2023-05-20T18:15:14.527Z,8.27
2023-05-20T18:17:43.386Z,8.35
2023-05-20T18:20:12.903Z,8.95
2023-05-20T18:22:46.463Z,8.98
2023-05-20T18:25:17.682Z,8.90
2023-05-20T18:27:51.080Z,9.02
2023-05-20T18:30:20.186Z,11.27
2023-05-20T18:32:48.752Z,10.85
2023-05-20T18:35:17.764Z,10.95
2023-05-20T18:37:54.608Z,10.75
2023-05-20T18:40:32.592Z,11.43
2023-05-20T18:43:03.554Z,10.63
2023-05-20T18:45:32.356Z,11.50
2023-05-20T18:48:08.074Z,10.88
2023-05-20T18:50:39.275Z,11.73
2023-05-20T18:53:24.144Z,11.25
2023-05-20T18:55:55.270Z,11.02
2023-05-20T18:58:25.192Z,10.77
2023-05-20T19:00:54.218Z,11.30
2023-05-20T19:03:29.907Z,11.38
2023-05-20T19:06:03.844Z,10.77
2023-05-20T19:08:35.017Z,11.00
2023-05-20T19:11:09.398Z,10.93
2023-05-20T19:13:38.095Z,10.55
2023-05-20T19:16:06.825Z,10.73
2023-05-20T19:18:36.018Z,10.75
2023-05-20T19:21:16.100Z,11.38
2023-05-20T19:23:49.107Z,10.32
2023-05-20T19:26:19.494Z,10.70
2023-05-20T19:28:48.133Z,9.93
2023-05-20T19:31:21.500Z,10.27
2023-05-20T19:33:52.324Z,10.82
2023-05-20T19:36:20.955Z,12.30
2023-05-20T19:38:49.999Z,11.18
2023-05-20T19:41:18.430Z,11.70
2023-05-20T19:43:46.970Z,10.85
2023-05-20T19:46:16.649Z,11.00
2023-05-20T19:48:45.004Z,10.73
2023-05-20T19:51:15.775Z,10.68
2023-05-20T19:53:43.137Z,11.23
2023-05-20T19:56:20.236Z,10.90
2023-05-20T19:58:48.847Z,11.57
2023-05-20T20:01:17.980Z,11.55
2023-05-20T20:03:47.273Z,10.40
2023-05-20T20:06:16.602Z,11.75
2023-05-20T20:08:46.792Z,10.95
2023-05-20T20:11:15.772Z,10.85
2023-05-20T20:13:50.576Z,10.98
2023-05-20T20:16:20.319Z,11.07
2023-05-20T20:18:53.955Z,11.02
2023-05-20T20:21:28.056Z,11.15
2023-05-20T20:24:01.855Z,10.93
2023-05-20T20:26:30.890Z,10.05
2023-05-20T20:28:59.623Z,11.63
2023-05-20T20:31:30.292Z,11.85
2023-05-20T20:34:09.895Z,13.32
2023-05-20T20:36:41.093Z,12.15
2023-05-20T20:39:10.693Z,11.27
2023-05-20T20:41:41.823Z,11.75
2023-05-20T20:44:18.226Z,11.30
2023-05-20T20:46:54.075Z,11.35
2023-05-20T20:49:26.937Z,11.73
2023-05-20T20:51:58.719Z,10.95
2023-05-20T20:54:28.627Z,12.80
2023-05-20T20:56:57.817Z,11.90
2023-05-20T20:59:27.119Z,11.37
2023-05-20T21:02:05.048Z,12.23
2023-05-20T21:04:34.960Z,11.93
2023-05-20T21:07:05.501Z,12.40
2023-05-20T21:09:35.794Z,11.40
2023-05-20T21:12:08.233Z,11.43
2023-05-20T21:14:45.032Z,11.77
2023-05-20T21:17:13.754Z,10.50
2023-05-20T21:19:44.117Z,10.87
2023-05-20T21:22:11.961Z,12.30
2023-05-20T21:24:42.560Z,12.30
2023-05-20T21:27:13.044Z,11.70
2023-05-20T21:29:40.445Z,11.30
2023-05-20T21:32:12.144Z,12.20
2023-05-20T21:34:45.382Z,12.13
2023-05-20T21:37:21.677Z,11.87
2023-05-20T21:39:58.690Z,13.30
2023-05-20T21:42:28.487Z,12.70
2023-05-20T21:44:58.930Z,12.07
2023-05-20T21:47:31.407Z,13.17
2023-05-20T21:50:03.996Z,13.67
2023-05-20T21:52:33.730Z,12.57
2023-05-20T21:55:06.795Z,12.03
2023-05-20T21:57:38.755Z,13.70
2023-05-20T22:00:10.602Z,12.67
2023-05-20T22:02:44.850Z,13.70
2023-05-20T22:05:14.875Z,13.20
2023-05-20T22:08:03.770Z,13.83
2023-05-20T22:10:35.370Z,12.93
2023-05-20T22:13:04.043Z,14.73
2023-05-20T22:15:32.754Z,12.77
2023-05-20T22:18:07.560Z,13.70
2023-05-20T22:20:40.405Z,13.70
2023-05-20T22:23:10.515Z,13.70
2023-05-20T22:25:48.325Z,12.37
2023-05-20T22:28:29.745Z,13.90
2023-05-20T22:30:57.541Z,13.43
2023-05-20T22:33:29.649Z,13.17
2023-05-20T22:35:59.009Z,12.50
2023-05-20T22:38:29.695Z,13.27
2023-05-20T22:41:00.001Z,13.47
2023-05-20T22:43:28.737Z,13.60
2023-05-20T22:45:55.887Z,13.13
2023-05-20T22:48:26.837Z,13.43
2023-05-20T22:50:59.375Z,15.83
2023-05-20T22:53:30.010Z,15.37
2023-05-20T22:56:01.303Z,12.30
2023-05-20T22:58:41.861Z,14.80
2023-05-20T23:01:18.762Z,14.27
2023-05-20T23:03:47.663Z,14.10
2023-05-20T23:06:18.471Z,14.73
2023-05-20T23:08:47.538Z,14.60
2023-05-20T23:11:17.975Z,13.97
2023-05-20T23:13:48.334Z,13.37
2023-05-20T23:16:18.818Z,14.23
2023-05-20T23:18:48.444Z,14.53
2023-05-20T23:21:19.870Z,13.60
2023-05-20T23:23:47.733Z,14.13
2023-05-20T23:26:20.889Z,14.70
2023-05-20T23:28:49.940Z,15.13
2023-05-20T23:31:18.920Z,14.20
2023-05-20T23:33:47.483Z,13.57
2023-05-20T23:36:17.603Z,15.73
2023-05-20T23:38:48.777Z,14.07
2023-05-20T23:41:19.688Z,14.90
2023-05-20T23:43:58.240Z,16.03
2023-05-20T23:46:27.109Z,14.83
2023-05-20T23:48:54.294Z,14.10
2023-05-20T23:51:24.297Z,16.73
2023-05-20T23:53:53.632Z,14.37
2023-05-20T23:56:31.140Z,15.30
2023-05-20T23:58:58.765Z,13.97
